sensor_id;sensor_type;location;lat;lon;timestamp;P1;durP1;ratioP1;P2;durP2;ratioP2
4021;SDS011;2025;48.260;16.432;2023-08-06T00:00:59;2.10;;;0.50;;
4021;SDS011;2025;48.260;16.432;2023-08-06T00:03:26;2.15;;;1.08;;
4021;SDS011;2025;48.260;16.432;2023-08-06T00:05:53;2.20;;;0.80;;
4021;SDS011;2025;48.260;16.432;2023-08-06T00:08:20;1.95;;;1.10;;
4021;SDS011;2025;48.260;16.432;2023-08-06T00:10:48;2.40;;;1.42;;
4021;SDS011;2025;48.260;16.432;2023-08-06T00:13:15;1.73;;;0.98;;
4021;SDS011;2025;48.260;16.432;2023-08-06T00:15:42;2.00;;;0.85;;
4021;SDS011;2025;48.260;16.432;2023-08-06T00:18:09;1.95;;;0.75;;
4021;SDS011;2025;48.260;16.432;2023-08-06T00:20:38;1.92;;;1.40;;
4021;SDS011;2025;48.260;16.432;2023-08-06T00:23:05;1.95;;;1.05;;
4021;SDS011;2025;48.260;16.432;2023-08-06T00:25:32;2.08;;;1.15;;
4021;SDS011;2025;48.260;16.432;2023-08-06T00:28:01;1.95;;;1.30;;
4021;SDS011;2025;48.260;16.432;2023-08-06T00:30:28;1.70;;;0.88;;
4021;SDS011;2025;48.260;16.432;2023-08-06T00:32:55;1.52;;;1.00;;
4021;SDS011;2025;48.260;16.432;2023-08-06T00:35:22;2.15;;;0.80;;
4021;SDS011;2025;48.260;16.432;2023-08-06T00:37:49;2.00;;;0.90;;
4021;SDS011;2025;48.260;16.432;2023-08-06T00:40:15;2.05;;;1.85;;
4021;SDS011;2025;48.260;16.432;2023-08-06T00:42:46;1.40;;;0.77;;
4021;SDS011;2025;48.260;16.432;2023-08-06T00:45:14;1.85;;;1.00;;
4021;SDS011;2025;48.260;16.432;2023-08-06T00:47:41;1.52;;;0.85;;
4021;SDS011;2025;48.260;16.432;2023-08-06T00:50:08;1.65;;;0.77;;
4021;SDS011;2025;48.260;16.432;2023-08-06T00:52:35;2.03;;;1.02;;
4021;SDS011;2025;48.260;16.432;2023-08-06T00:55:03;1.75;;;1.02;;
4021;SDS011;2025;48.260;16.432;2023-08-06T00:57:30;2.45;;;0.93;;
4021;SDS011;2025;48.260;16.432;2023-08-06T00:59:58;1.85;;;0.63;;
4021;SDS011;2025;48.260;16.432;2023-08-06T01:02:26;1.23;;;0.30;;
4021;SDS011;2025;48.260;16.432;2023-08-06T01:04:53;2.15;;;1.40;;
4021;SDS011;2025;48.260;16.432;2023-08-06T01:07:24;1.80;;;0.85;;
4021;SDS011;2025;48.260;16.432;2023-08-06T01:10:10;1.77;;;1.02;;
4021;SDS011;2025;48.260;16.432;2023-08-06T01:12:48;2.42;;;1.27;;
4021;SDS011;2025;48.260;16.432;2023-08-06T01:15:23;1.75;;;1.17;;
4021;SDS011;2025;48.260;16.432;2023-08-06T01:17:55;2.42;;;1.08;;
4021;SDS011;2025;48.260;16.432;2023-08-06T01:20:28;2.00;;;1.10;;
4021;SDS011;2025;48.260;16.432;2023-08-06T01:22:55;2.10;;;0.90;;
4021;SDS011;2025;48.260;16.432;2023-08-06T01:25:23;2.60;;;0.73;;
4021;SDS011;2025;48.260;16.432;2023-08-06T01:27:57;2.22;;;1.85;;
4021;SDS011;2025;48.260;16.432;2023-08-06T01:30:31;2.83;;;1.02;;
4021;SDS011;2025;48.260;16.432;2023-08-06T01:33:03;1.77;;;1.08;;
4021;SDS011;2025;48.260;16.432;2023-08-06T01:35:32;2.45;;;1.48;;
4021;SDS011;2025;48.260;16.432;2023-08-06T01:38:01;1.58;;;0.80;;
4021;SDS011;2025;48.260;16.432;2023-08-06T01:40:29;1.83;;;0.88;;
4021;SDS011;2025;48.260;16.432;2023-08-06T01:42:57;1.80;;;0.90;;
4021;SDS011;2025;48.260;16.432;2023-08-06T01:45:24;1.80;;;1.05;;
4021;SDS011;2025;48.260;16.432;2023-08-06T01:47:51;1.75;;;1.00;;
4021;SDS011;2025;48.260;16.432;2023-08-06T01:50:18;2.08;;;1.85;;
4021;SDS011;2025;48.260;16.432;2023-08-06T01:52:46;2.15;;;1.40;;
4021;SDS011;2025;48.260;16.432;2023-08-06T01:55:13;1.83;;;1.00;;
4021;SDS011;2025;48.260;16.432;2023-08-06T01:57:39;1.80;;;1.10;;
4021;SDS011;2025;48.260;16.432;2023-08-06T02:00:06;1.85;;;0.98;;
4021;SDS011;2025;48.260;16.432;2023-08-06T02:02:34;1.45;;;0.77;;
4021;SDS011;2025;48.260;16.432;2023-08-06T02:05:01;1.50;;;0.50;;
4021;SDS011;2025;48.260;16.432;2023-08-06T02:07:28;1.67;;;0.95;;
4021;SDS011;2025;48.260;16.432;2023-08-06T02:09:56;2.65;;;1.08;;
4021;SDS011;2025;48.260;16.432;2023-08-06T02:12:23;2.53;;;1.40;;
4021;SDS011;2025;48.260;16.432;2023-08-06T02:14:50;3.03;;;1.33;;
4021;SDS011;2025;48.260;16.432;2023-08-06T02:17:17;1.83;;;1.05;;
4021;SDS011;2025;48.260;16.432;2023-08-06T02:19:44;2.05;;;1.08;;
4021;SDS011;2025;48.260;16.432;2023-08-06T02:22:10;2.05;;;1.02;;
4021;SDS011;2025;48.260;16.432;2023-08-06T02:24:37;3.05;;;1.45;;
4021;SDS011;2025;48.260;16.432;2023-08-06T02:27:06;2.45;;;1.92;;
4021;SDS011;2025;48.260;16.432;2023-08-06T02:29:33;2.53;;;1.23;;
4021;SDS011;2025;48.260;16.432;2023-08-06T02:32:00;2.85;;;1.38;;
4021;SDS011;2025;48.260;16.432;2023-08-06T02:34:27;2.50;;;1.13;;
4021;SDS011;2025;48.260;16.432;2023-08-06T02:36:54;2.17;;;1.23;;
4021;SDS011;2025;48.260;16.432;2023-08-06T02:39:21;2.53;;;1.05;;
4021;SDS011;2025;48.260;16.432;2023-08-06T02:41:48;2.17;;;0.30;;
4021;SDS011;2025;48.260;16.432;2023-08-06T02:44:17;3.05;;;1.75;;
4021;SDS011;2025;48.260;16.432;2023-08-06T02:46:44;5.03;;;2.00;;
4021;SDS011;2025;48.260;16.432;2023-08-06T02:49:11;2.63;;;1.42;;
4021;SDS011;2025;48.260;16.432;2023-08-06T02:51:38;2.60;;;1.38;;
4021;SDS011;2025;48.260;16.432;2023-08-06T02:54:04;2.75;;;1.67;;
4021;SDS011;2025;48.260;16.432;2023-08-06T02:56:31;3.35;;;1.40;;
4021;SDS011;2025;48.260;16.432;2023-08-06T02:58:58;2.60;;;1.50;;
4021;SDS011;2025;48.260;16.432;2023-08-06T03:01:27;2.75;;;1.25;;
4021;SDS011;2025;48.260;16.432;2023-08-06T03:03:54;2.78;;;1.33;;
4021;SDS011;2025;48.260;16.432;2023-08-06T03:06:21;3.30;;;2.67;;
4021;SDS011;2025;48.260;16.432;2023-08-06T03:08:48;2.58;;;1.20;;
4021;SDS011;2025;48.260;16.432;2023-08-06T03:11:15;2.35;;;1.10;;
4021;SDS011;2025;48.260;16.432;2023-08-06T03:13:41;4.05;;;1.60;;
4021;SDS011;2025;48.260;16.432;2023-08-06T03:16:08;3.10;;;2.25;;
4021;SDS011;2025;48.260;16.432;2023-08-06T03:18:37;2.35;;;0.70;;
4021;SDS011;2025;48.260;16.432;2023-08-06T03:21:04;2.85;;;1.25;;
4021;SDS011;2025;48.260;16.432;2023-08-06T03:23:31;2.67;;;1.15;;
4021;SDS011;2025;48.260;16.432;2023-08-06T03:26:00;3.10;;;1.88;;
4021;SDS011;2025;48.260;16.432;2023-08-06T03:28:28;2.38;;;1.20;;
4021;SDS011;2025;48.260;16.432;2023-08-06T03:31:01;3.22;;;1.48;;
4021;SDS011;2025;48.260;16.432;2023-08-06T03:33:28;3.47;;;2.00;;
4021;SDS011;2025;48.260;16.432;2023-08-06T03:35:57;2.65;;;1.52;;
4021;SDS011;2025;48.260;16.432;2023-08-06T03:38:24;3.20;;;1.45;;
4021;SDS011;2025;48.260;16.432;2023-08-06T03:40:51;2.70;;;1.95;;
4021;SDS011;2025;48.260;16.432;2023-08-06T03:43:18;3.17;;;1.70;;
4021;SDS011;2025;48.260;16.432;2023-08-06T03:45:45;3.03;;;1.52;;
4021;SDS011;2025;48.260;16.432;2023-08-06T03:48:12;3.33;;;2.20;;
4021;SDS011;2025;48.260;16.432;2023-08-06T03:50:39;4.57;;;1.77;;
4021;SDS011;2025;48.260;16.432;2023-08-06T03:53:07;2.97;;;1.27;;
4021;SDS011;2025;48.260;16.432;2023-08-06T03:55:34;3.50;;;2.45;;
4021;SDS011;2025;48.260;16.432;2023-08-06T03:58:01;3.22;;;1.75;;
4021;SDS011;2025;48.260;16.432;2023-08-06T04:00:28;3.75;;;1.40;;
4021;SDS011;2025;48.260;16.432;2023-08-06T04:02:55;5.63;;;1.73;;
4021;SDS011;2025;48.260;16.432;2023-08-06T04:05:22;3.50;;;1.67;;
4021;SDS011;2025;48.260;16.432;2023-08-06T04:07:49;3.53;;;1.50;;
4021;SDS011;2025;48.260;16.432;2023-08-06T04:10:17;3.00;;;0.70;;
4021;SDS011;2025;48.260;16.432;2023-08-06T04:12:44;3.28;;;1.45;;
4021;SDS011;2025;48.260;16.432;2023-08-06T04:15:11;3.30;;;1.60;;
4021;SDS011;2025;48.260;16.432;2023-08-06T04:17:38;3.10;;;1.45;;
4021;SDS011;2025;48.260;16.432;2023-08-06T04:20:06;3.90;;;2.22;;
4021;SDS011;2025;48.260;16.432;2023-08-06T04:22:33;3.63;;;2.58;;
4021;SDS011;2025;48.260;16.432;2023-08-06T04:25:00;2.85;;;0.60;;
4021;SDS011;2025;48.260;16.432;2023-08-06T04:27:29;3.45;;;0.85;;
4021;SDS011;2025;48.260;16.432;2023-08-06T04:29:56;4.00;;;1.92;;
4021;SDS011;2025;48.260;16.432;2023-08-06T04:32:23;3.15;;;1.85;;
4021;SDS011;2025;48.260;16.432;2023-08-06T04:34:51;3.28;;;1.58;;
4021;SDS011;2025;48.260;16.432;2023-08-06T04:37:18;4.82;;;1.95;;
4021;SDS011;2025;48.260;16.432;2023-08-06T04:39:45;3.80;;;1.58;;
4021;SDS011;2025;48.260;16.432;2023-08-06T04:42:11;3.65;;;1.83;;
4021;SDS011;2025;48.260;16.432;2023-08-06T04:44:40;4.45;;;1.42;;
4021;SDS011;2025;48.260;16.432;2023-08-06T04:47:07;3.33;;;1.55;;
4021;SDS011;2025;48.260;16.432;2023-08-06T04:49:34;4.80;;;2.17;;
4021;SDS011;2025;48.260;16.432;2023-08-06T04:52:01;2.47;;;0.93;;
4021;SDS011;2025;48.260;16.432;2023-08-06T04:54:28;3.00;;;1.23;;
4021;SDS011;2025;48.260;16.432;2023-08-06T04:56:55;3.05;;;1.35;;
4021;SDS011;2025;48.260;16.432;2023-08-06T04:59:21;2.78;;;0.40;;
4021;SDS011;2025;48.260;16.432;2023-08-06T05:01:50;4.13;;;1.73;;
4021;SDS011;2025;48.260;16.432;2023-08-06T05:04:17;3.42;;;1.50;;
4021;SDS011;2025;48.260;16.432;2023-08-06T05:06:44;3.05;;;0.65;;
4021;SDS011;2025;48.260;16.432;2023-08-06T05:09:11;3.90;;;2.28;;
4021;SDS011;2025;48.260;16.432;2023-08-06T05:11:38;3.00;;;1.35;;
4021;SDS011;2025;48.260;16.432;2023-08-06T05:14:04;3.88;;;1.52;;
4021;SDS011;2025;48.260;16.432;2023-08-06T05:16:31;3.30;;;1.35;;
4021;SDS011;2025;48.260;16.432;2023-08-06T05:19:00;3.00;;;1.60;;
4021;SDS011;2025;48.260;16.432;2023-08-06T05:21:27;4.30;;;1.52;;
4021;SDS011;2025;48.260;16.432;2023-08-06T05:23:54;4.78;;;1.38;;
4021;SDS011;2025;48.260;16.432;2023-08-06T05:26:21;3.58;;;1.67;;
4021;SDS011;2025;48.260;16.432;2023-08-06T05:28:48;3.25;;;1.42;;
4021;SDS011;2025;48.260;16.432;2023-08-06T05:31:15;3.38;;;1.38;;
4021;SDS011;2025;48.260;16.432;2023-08-06T05:33:42;3.15;;;1.45;;
4021;SDS011;2025;48.260;16.432;2023-08-06T05:36:10;3.05;;;1.58;;
4021;SDS011;2025;48.260;16.432;2023-08-06T05:38:37;3.10;;;1.30;;
4021;SDS011;2025;48.260;16.432;2023-08-06T05:41:04;5.07;;;1.80;;
4021;SDS011;2025;48.260;16.432;2023-08-06T05:43:31;2.72;;;1.48;;
4021;SDS011;2025;48.260;16.432;2023-08-06T05:45:58;2.90;;;1.27;;
4021;SDS011;2025;48.260;16.432;2023-08-06T05:48:25;3.60;;;1.98;;
4021;SDS011;2025;48.260;16.432;2023-08-06T05:50:53;2.78;;;0.30;;
4021;SDS011;2025;48.260;16.432;2023-08-06T05:53:21;3.38;;;1.42;;
4021;SDS011;2025;48.260;16.432;2023-08-06T05:55:48;3.85;;;1.55;;
4021;SDS011;2025;48.260;16.432;2023-08-06T05:58:15;3.05;;;1.48;;
4021;SDS011;2025;48.260;16.432;2023-08-06T06:00:42;4.43;;;3.03;;
4021;SDS011;2025;48.260;16.432;2023-08-06T06:03:09;3.00;;;1.17;;
4021;SDS011;2025;48.260;16.432;2023-08-06T06:05:37;3.35;;;1.70;;
4021;SDS011;2025;48.260;16.432;2023-08-06T06:08:04;3.22;;;1.38;;
4021;SDS011;2025;48.260;16.432;2023-08-06T06:10:33;3.00;;;1.17;;
4021;SDS011;2025;48.260;16.432;2023-08-06T06:12:59;3.45;;;1.48;;
4021;SDS011;2025;48.260;16.432;2023-08-06T06:15:26;4.55;;;1.73;;
4021;SDS011;2025;48.260;16.432;2023-08-06T06:17:53;3.00;;;1.33;;
4021;SDS011;2025;48.260;16.432;2023-08-06T06:20:20;3.10;;;1.45;;
4021;SDS011;2025;48.260;16.432;2023-08-06T06:22:48;3.38;;;1.48;;
4021;SDS011;2025;48.260;16.432;2023-08-06T06:25:14;2.95;;;0.90;;
4021;SDS011;2025;48.260;16.432;2023-08-06T06:27:43;3.60;;;1.55;;
4021;SDS011;2025;48.260;16.432;2023-08-06T06:30:10;3.00;;;1.65;;
4021;SDS011;2025;48.260;16.432;2023-08-06T06:32:38;3.00;;;1.75;;
4021;SDS011;2025;48.260;16.432;2023-08-06T06:35:06;3.90;;;1.42;;
4021;SDS011;2025;48.260;16.432;2023-08-06T06:37:34;3.97;;;1.38;;
4021;SDS011;2025;48.260;16.432;2023-08-06T06:40:01;3.35;;;1.20;;
4021;SDS011;2025;48.260;16.432;2023-08-06T06:42:28;3.42;;;1.38;;
4021;SDS011;2025;48.260;16.432;2023-08-06T06:44:57;2.90;;;1.25;;
4021;SDS011;2025;48.260;16.432;2023-08-06T06:47:24;3.78;;;1.73;;
4021;SDS011;2025;48.260;16.432;2023-08-06T06:49:51;3.33;;;1.52;;
4021;SDS011;2025;48.260;16.432;2023-08-06T06:52:18;4.35;;;1.40;;
4021;SDS011;2025;48.260;16.432;2023-08-06T06:54:45;3.28;;;1.92;;
4021;SDS011;2025;48.260;16.432;2023-08-06T06:57:11;2.75;;;1.23;;
4021;SDS011;2025;48.260;16.432;2023-08-06T06:59:38;2.30;;;0.40;;
4021;SDS011;2025;48.260;16.432;2023-08-06T07:02:07;3.58;;;1.50;;
4021;SDS011;2025;48.260;16.432;2023-08-06T07:04:34;3.10;;;1.10;;
4021;SDS011;2025;48.260;16.432;2023-08-06T07:07:00;3.10;;;1.98;;
4021;SDS011;2025;48.260;16.432;2023-08-06T07:09:27;2.92;;;0.45;;
4021;SDS011;2025;48.260;16.432;2023-08-06T07:11:54;2.88;;;0.88;;
4021;SDS011;2025;48.260;16.432;2023-08-06T07:14:21;3.40;;;1.42;;
4021;SDS011;2025;48.260;16.432;2023-08-06T07:16:49;3.13;;;1.23;;
4021;SDS011;2025;48.260;16.432;2023-08-06T07:19:17;3.40;;;1.55;;
4021;SDS011;2025;48.260;16.432;2023-08-06T07:21:44;3.28;;;1.67;;
4021;SDS011;2025;48.260;16.432;2023-08-06T07:24:11;3.10;;;1.17;;
4021;SDS011;2025;48.260;16.432;2023-08-06T07:26:38;3.28;;;2.05;;
4021;SDS011;2025;48.260;16.432;2023-08-06T07:29:05;3.42;;;1.27;;
4021;SDS011;2025;48.260;16.432;2023-08-06T07:31:32;3.70;;;1.50;;
4021;SDS011;2025;48.260;16.432;2023-08-06T07:33:59;3.40;;;1.55;;
4021;SDS011;2025;48.260;16.432;2023-08-06T07:36:27;4.35;;;1.50;;
4021;SDS011;2025;48.260;16.432;2023-08-06T07:38:54;3.50;;;1.92;;
4021;SDS011;2025;48.260;16.432;2023-08-06T07:41:22;3.65;;;0.65;;
4021;SDS011;2025;48.260;16.432;2023-08-06T07:43:49;3.28;;;1.60;;
4021;SDS011;2025;48.260;16.432;2023-08-06T07:46:16;3.70;;;1.55;;
4021;SDS011;2025;48.260;16.432;2023-08-06T07:48:43;3.38;;;1.58;;
4021;SDS011;2025;48.260;16.432;2023-08-06T07:51:10;2.53;;;1.23;;
4021;SDS011;2025;48.260;16.432;2023-08-06T07:53:38;2.85;;;1.40;;
4021;SDS011;2025;48.260;16.432;2023-08-06T07:56:05;3.20;;;1.60;;
4021;SDS011;2025;48.260;16.432;2023-08-06T07:58:32;3.35;;;1.45;;
4021;SDS011;2025;48.260;16.432;2023-08-06T08:00:59;2.95;;;0.40;;
4021;SDS011;2025;48.260;16.432;2023-08-06T08:03:26;3.45;;;2.00;;
4021;SDS011;2025;48.260;16.432;2023-08-06T08:05:54;2.92;;;1.45;;
4021;SDS011;2025;48.260;16.432;2023-08-06T08:08:23;2.95;;;1.70;;
4021;SDS011;2025;48.260;16.432;2023-08-06T08:10:52;2.67;;;1.42;;
4021;SDS011;2025;48.260;16.432;2023-08-06T08:13:20;2.40;;;0.55;;
4021;SDS011;2025;48.260;16.432;2023-08-06T08:15:47;3.95;;;2.17;;
4021;SDS011;2025;48.260;16.432;2023-08-06T08:18:14;3.20;;;1.55;;
4021;SDS011;2025;48.260;16.432;2023-08-06T08:20:41;3.78;;;2.03;;
4021;SDS011;2025;48.260;16.432;2023-08-06T08:23:08;3.40;;;1.58;;
4021;SDS011;2025;48.260;16.432;2023-08-06T08:25:35;4.38;;;1.67;;
4021;SDS011;2025;48.260;16.432;2023-08-06T08:28:03;3.20;;;1.50;;
4021;SDS011;2025;48.260;16.432;2023-08-06T08:30:30;4.55;;;1.38;;
4021;SDS011;2025;48.260;16.432;2023-08-06T08:32:57;3.50;;;1.70;;
4021;SDS011;2025;48.260;16.432;2023-08-06T08:35:24;3.38;;;1.45;;
4021;SDS011;2025;48.260;16.432;2023-08-06T08:37:51;3.38;;;1.88;;
4021;SDS011;2025;48.260;16.432;2023-08-06T08:40:18;3.58;;;1.58;;
4021;SDS011;2025;48.260;16.432;2023-08-06T08:42:45;2.95;;;1.33;;
4021;SDS011;2025;48.260;16.432;2023-08-06T08:45:14;3.83;;;1.52;;
4021;SDS011;2025;48.260;16.432;2023-08-06T08:47:41;3.28;;;1.42;;
4021;SDS011;2025;48.260;16.432;2023-08-06T08:50:09;3.30;;;0.75;;
4021;SDS011;2025;48.260;16.432;2023-08-06T08:52:38;3.35;;;1.60;;
4021;SDS011;2025;48.260;16.432;2023-08-06T08:55:07;4.45;;;2.20;;
4021;SDS011;2025;48.260;16.432;2023-08-06T08:57:34;3.80;;;1.80;;
4021;SDS011;2025;48.260;16.432;2023-08-06T09:00:02;3.60;;;1.67;;
4021;SDS011;2025;48.260;16.432;2023-08-06T09:02:32;3.67;;;2.17;;
4021;SDS011;2025;48.260;16.432;2023-08-06T09:05:00;3.55;;;1.67;;
4021;SDS011;2025;48.260;16.432;2023-08-06T09:07:29;4.50;;;1.77;;
4021;SDS011;2025;48.260;16.432;2023-08-06T09:09:58;4.13;;;1.83;;
4021;SDS011;2025;48.260;16.432;2023-08-06T09:12:29;3.53;;;1.80;;
4021;SDS011;2025;48.260;16.432;2023-08-06T09:14:57;4.10;;;1.50;;
4021;SDS011;2025;48.260;16.432;2023-08-06T09:17:24;2.83;;;0.80;;
4021;SDS011;2025;48.260;16.432;2023-08-06T09:19:54;3.53;;;1.45;;
4021;SDS011;2025;48.260;16.432;2023-08-06T09:22:21;3.20;;;1.60;;
4021;SDS011;2025;48.260;16.432;2023-08-06T09:24:48;5.13;;;2.10;;
4021;SDS011;2025;48.260;16.432;2023-08-06T09:27:15;3.80;;;2.15;;
4021;SDS011;2025;48.260;16.432;2023-08-06T09:29:44;4.60;;;2.35;;
4021;SDS011;2025;48.260;16.432;2023-08-06T09:32:12;4.65;;;1.40;;
4021;SDS011;2025;48.260;16.432;2023-08-06T09:34:39;3.67;;;1.60;;
4021;SDS011;2025;48.260;16.432;2023-08-06T09:37:09;3.50;;;1.75;;
4021;SDS011;2025;48.260;16.432;2023-08-06T09:39:37;3.78;;;2.13;;
4021;SDS011;2025;48.260;16.432;2023-08-06T09:42:05;3.40;;;1.83;;
4021;SDS011;2025;48.260;16.432;2023-08-06T09:44:32;5.18;;;1.67;;
4021;SDS011;2025;48.260;16.432;2023-08-06T09:47:00;4.10;;;2.08;;
4021;SDS011;2025;48.260;16.432;2023-08-06T09:49:39;4.80;;;1.95;;
4021;SDS011;2025;48.260;16.432;2023-08-06T09:52:11;3.40;;;1.05;;
4021;SDS011;2025;48.260;16.432;2023-08-06T09:54:41;3.83;;;2.30;;
4021;SDS011;2025;48.260;16.432;2023-08-06T09:57:09;4.78;;;2.72;;
4021;SDS011;2025;48.260;16.432;2023-08-06T09:59:37;3.53;;;1.55;;
4021;SDS011;2025;48.260;16.432;2023-08-06T10:02:06;6.55;;;2.42;;
4021;SDS011;2025;48.260;16.432;2023-08-06T10:04:39;3.33;;;1.60;;
4021;SDS011;2025;48.260;16.432;2023-08-06T10:07:06;3.78;;;2.35;;
4021;SDS011;2025;48.260;16.432;2023-08-06T10:09:34;4.10;;;2.25;;
4021;SDS011;2025;48.260;16.432;2023-08-06T10:12:02;3.42;;;1.88;;
4021;SDS011;2025;48.260;16.432;2023-08-06T10:14:30;4.40;;;2.67;;
4021;SDS011;2025;48.260;16.432;2023-08-06T10:16:59;4.10;;;1.58;;
4021;SDS011;2025;48.260;16.432;2023-08-06T10:19:27;4.07;;;2.08;;
4021;SDS011;2025;48.260;16.432;2023-08-06T10:22:10;3.58;;;1.40;;
4021;SDS011;2025;48.260;16.432;2023-08-06T10:24:48;3.00;;;1.58;;
4021;SDS011;2025;48.260;16.432;2023-08-06T10:27:19;2.65;;;1.40;;
4021;SDS011;2025;48.260;16.432;2023-08-06T10:32:21;3.28;;;1.33;;
4021;SDS011;2025;48.260;16.432;2023-08-06T10:34:55;2.75;;;1.55;;
4021;SDS011;2025;48.260;16.432;2023-08-06T10:37:23;3.83;;;1.58;;
4021;SDS011;2025;48.260;16.432;2023-08-06T10:39:52;3.20;;;1.33;;
4021;SDS011;2025;48.260;16.432;2023-08-06T10:42:20;2.90;;;1.10;;
4021;SDS011;2025;48.260;16.432;2023-08-06T10:47:53;3.33;;;1.40;;
4021;SDS011;2025;48.260;16.432;2023-08-06T10:50:20;2.58;;;1.40;;
4021;SDS011;2025;48.260;16.432;2023-08-06T10:52:48;3.00;;;0.95;;
4021;SDS011;2025;48.260;16.432;2023-08-06T10:55:23;3.60;;;1.45;;
4021;SDS011;2025;48.260;16.432;2023-08-06T10:57:50;3.30;;;2.45;;
4021;SDS011;2025;48.260;16.432;2023-08-06T11:00:17;2.40;;;0.30;;
4021;SDS011;2025;48.260;16.432;2023-08-06T11:02:45;2.00;;;0.45;;
4021;SDS011;2025;48.260;16.432;2023-08-06T11:05:13;3.08;;;1.45;;
4021;SDS011;2025;48.260;16.432;2023-08-06T11:07:40;3.30;;;0.95;;
4021;SDS011;2025;48.260;16.432;2023-08-06T11:10:08;2.90;;;1.67;;
4021;SDS011;2025;48.260;16.432;2023-08-06T11:12:37;3.30;;;1.77;;
4021;SDS011;2025;48.260;16.432;2023-08-06T11:15:04;2.88;;;1.20;;
4021;SDS011;2025;48.260;16.432;2023-08-06T11:17:33;3.50;;;2.38;;
4021;SDS011;2025;48.260;16.432;2023-08-06T11:20:02;3.03;;;1.35;;
4021;SDS011;2025;48.260;16.432;2023-08-06T11:22:30;4.00;;;1.77;;
4021;SDS011;2025;48.260;16.432;2023-08-06T11:24:57;3.45;;;1.58;;
4021;SDS011;2025;48.260;16.432;2023-08-06T11:27:26;4.38;;;1.95;;
4021;SDS011;2025;48.260;16.432;2023-08-06T11:29:55;4.13;;;2.30;;
4021;SDS011;2025;48.260;16.432;2023-08-06T11:32:21;4.22;;;2.05;;
4021;SDS011;2025;48.260;16.432;2023-08-06T11:34:48;4.82;;;2.05;;
4021;SDS011;2025;48.260;16.432;2023-08-06T11:37:15;3.90;;;1.75;;
4021;SDS011;2025;48.260;16.432;2023-08-06T11:39:44;3.65;;;1.60;;
4021;SDS011;2025;48.260;16.432;2023-08-06T11:42:13;4.80;;;1.98;;
4021;SDS011;2025;48.260;16.432;2023-08-06T11:44:40;3.78;;;1.88;;
4021;SDS011;2025;48.260;16.432;2023-08-06T11:47:13;4.38;;;2.30;;
4021;SDS011;2025;48.260;16.432;2023-08-06T11:49:45;4.40;;;2.05;;
4021;SDS011;2025;48.260;16.432;2023-08-06T11:52:14;5.97;;;2.53;;
4021;SDS011;2025;48.260;16.432;2023-08-06T11:54:44;4.70;;;2.00;;
4021;SDS011;2025;48.260;16.432;2023-08-06T11:57:12;4.60;;;2.28;;
4021;SDS011;2025;48.260;16.432;2023-08-06T11:59:39;4.60;;;2.72;;
4021;SDS011;2025;48.260;16.432;2023-08-06T12:02:07;4.65;;;2.17;;
4021;SDS011;2025;48.260;16.432;2023-08-06T12:07:38;3.65;;;2.13;;
4021;SDS011;2025;48.260;16.432;2023-08-06T12:10:07;5.03;;;2.05;;
4021;SDS011;2025;48.260;16.432;2023-08-06T12:12:34;4.07;;;2.35;;
4021;SDS011;2025;48.260;16.432;2023-08-06T12:15:03;4.82;;;2.35;;
4021;SDS011;2025;48.260;16.432;2023-08-06T12:17:31;4.13;;;2.42;;
4021;SDS011;2025;48.260;16.432;2023-08-06T12:19:58;4.35;;;2.60;;
4021;SDS011;2025;48.260;16.432;2023-08-06T12:22:27;4.10;;;2.47;;
4021;SDS011;2025;48.260;16.432;2023-08-06T12:24:56;4.00;;;2.20;;
4021;SDS011;2025;48.260;16.432;2023-08-06T12:27:23;5.72;;;2.35;;
4021;SDS011;2025;48.260;16.432;2023-08-06T12:29:50;4.22;;;2.33;;
4021;SDS011;2025;48.260;16.432;2023-08-06T12:32:17;4.78;;;2.45;;
4021;SDS011;2025;48.260;16.432;2023-08-06T12:34:44;5.97;;;2.58;;
4021;SDS011;2025;48.260;16.432;2023-08-06T12:37:11;4.50;;;2.65;;
4021;SDS011;2025;48.260;16.432;2023-08-06T12:39:40;4.32;;;2.50;;
4021;SDS011;2025;48.260;16.432;2023-08-06T12:42:07;4.55;;;2.25;;
4021;SDS011;2025;48.260;16.432;2023-08-06T12:44:35;4.53;;;2.20;;
4021;SDS011;2025;48.260;16.432;2023-08-06T12:47:02;5.55;;;2.20;;
4021;SDS011;2025;48.260;16.432;2023-08-06T12:49:29;5.32;;;2.65;;
4021;SDS011;2025;48.260;16.432;2023-08-06T12:51:56;5.15;;;1.95;;
4021;SDS011;2025;48.260;16.432;2023-08-06T12:54:25;3.58;;;1.52;;
4021;SDS011;2025;48.260;16.432;2023-08-06T12:56:53;4.20;;;2.20;;
4021;SDS011;2025;48.260;16.432;2023-08-06T12:59:20;4.82;;;2.05;;
4021;SDS011;2025;48.260;16.432;2023-08-06T13:01:47;5.75;;;2.35;;
4021;SDS011;2025;48.260;16.432;2023-08-06T13:04:14;4.32;;;1.92;;
4021;SDS011;2025;48.260;16.432;2023-08-06T13:06:41;3.83;;;2.03;;
4021;SDS011;2025;48.260;16.432;2023-08-06T13:09:08;4.72;;;2.13;;
4021;SDS011;2025;48.260;16.432;2023-08-06T13:11:35;3.92;;;1.95;;
4021;SDS011;2025;48.260;16.432;2023-08-06T13:14:07;4.40;;;2.78;;
4021;SDS011;2025;48.260;16.432;2023-08-06T13:16:35;3.35;;;2.08;;
4021;SDS011;2025;48.260;16.432;2023-08-06T13:19:03;4.50;;;2.53;;
4021;SDS011;2025;48.260;16.432;2023-08-06T13:21:32;4.57;;;2.42;;
4021;SDS011;2025;48.260;16.432;2023-08-06T13:24:00;4.25;;;2.42;;
4021;SDS011;2025;48.260;16.432;2023-08-06T13:26:28;4.53;;;2.33;;
4021;SDS011;2025;48.260;16.432;2023-08-06T13:28:56;5.80;;;2.80;;
4021;SDS011;2025;48.260;16.432;2023-08-06T13:31:25;6.13;;;3.03;;
4021;SDS011;2025;48.260;16.432;2023-08-06T13:33:52;5.25;;;2.20;;
4021;SDS011;2025;48.260;16.432;2023-08-06T13:36:23;4.38;;;2.15;;
4021;SDS011;2025;48.260;16.432;2023-08-06T13:38:50;4.70;;;2.63;;
4021;SDS011;2025;48.260;16.432;2023-08-06T13:41:17;4.30;;;2.40;;
4021;SDS011;2025;48.260;16.432;2023-08-06T13:43:44;4.60;;;2.17;;
4021;SDS011;2025;48.260;16.432;2023-08-06T13:46:11;4.65;;;2.28;;
4021;SDS011;2025;48.260;16.432;2023-08-06T13:48:43;5.63;;;2.53;;
4021;SDS011;2025;48.260;16.432;2023-08-06T13:51:10;4.55;;;2.88;;
4021;SDS011;2025;48.260;16.432;2023-08-06T13:53:38;4.32;;;2.20;;
4021;SDS011;2025;48.260;16.432;2023-08-06T13:56:05;4.57;;;2.28;;
4021;SDS011;2025;48.260;16.432;2023-08-06T13:58:32;4.15;;;1.65;;
4021;SDS011;2025;48.260;16.432;2023-08-06T14:00:59;5.25;;;1.35;;
4021;SDS011;2025;48.260;16.432;2023-08-06T14:03:26;4.53;;;1.80;;
4021;SDS011;2025;48.260;16.432;2023-08-06T14:05:55;4.45;;;2.25;;
4021;SDS011;2025;48.260;16.432;2023-08-06T14:08:22;5.32;;;3.85;;
4021;SDS011;2025;48.260;16.432;2023-08-06T14:10:49;7.07;;;2.83;;
4021;SDS011;2025;48.260;16.432;2023-08-06T14:13:16;4.70;;;2.35;;
4021;SDS011;2025;48.260;16.432;2023-08-06T14:15:43;5.15;;;2.30;;
4021;SDS011;2025;48.260;16.432;2023-08-06T14:18:12;4.40;;;1.83;;
4021;SDS011;2025;48.260;16.432;2023-08-06T14:20:39;4.20;;;2.00;;
4021;SDS011;2025;48.260;16.432;2023-08-06T14:23:07;6.53;;;2.05;;
4021;SDS011;2025;48.260;16.432;2023-08-06T14:25:34;4.43;;;1.80;;
4021;SDS011;2025;48.260;16.432;2023-08-06T14:28:01;4.18;;;2.22;;
4021;SDS011;2025;48.260;16.432;2023-08-06T14:30:28;4.40;;;2.17;;
4021;SDS011;2025;48.260;16.432;2023-08-06T14:32:55;5.22;;;2.03;;
4021;SDS011;2025;48.260;16.432;2023-08-06T14:35:22;4.68;;;2.92;;
4021;SDS011;2025;48.260;16.432;2023-08-06T14:37:49;4.20;;;1.67;;
4021;SDS011;2025;48.260;16.432;2023-08-06T14:40:18;4.85;;;2.33;;
4021;SDS011;2025;48.260;16.432;2023-08-06T14:42:44;4.20;;;1.25;;
4021;SDS011;2025;48.260;16.432;2023-08-06T14:45:11;4.63;;;0.68;;
4021;SDS011;2025;48.260;16.432;2023-08-06T14:47:38;3.10;;;1.50;;
4021;SDS011;2025;48.260;16.432;2023-08-06T14:50:05;3.60;;;1.10;;
4021;SDS011;2025;48.260;16.432;2023-08-06T14:52:32;3.80;;;0.80;;
4021;SDS011;2025;48.260;16.432;2023-08-06T14:55:00;3.70;;;1.20;;
4021;SDS011;2025;48.260;16.432;2023-08-06T14:57:30;4.00;;;0.60;;
4021;SDS011;2025;48.260;16.432;2023-08-06T14:59:57;6.80;;;1.25;;
4021;SDS011;2025;48.260;16.432;2023-08-06T15:02:25;2.97;;;0.90;;
4021;SDS011;2025;48.260;16.432;2023-08-06T15:04:52;3.20;;;0.35;;
4021;SDS011;2025;48.260;16.432;2023-08-06T15:07:19;3.10;;;1.73;;
4021;SDS011;2025;48.260;16.432;2023-08-06T15:09:46;3.78;;;1.25;;
4021;SDS011;2025;48.260;16.432;2023-08-06T15:12:13;3.40;;;1.65;;